Terminal Aerodrome Forecast
Issued by NWS Mt. Holly, NJ

Current Version | Previous Version | Text Only | Print | Product List | Glossary On
Versions: 1 2 3 4 5 6 7 8 9 10 11 12 13 14 15
000
FTUS41 KPHI 302223 AAB
TAFABE
TAF AMD
KABE 302223Z 3022/3118 25007KT P6SM OVC100
     FM310000 23004KT P6SM FEW050 BKN100
     FM311400 27010KT P6SM SCT050 BKN200=

USA.gov is the U.S. government's official web portal to all federal, state and local government web resources and services.